sensor_id;sensor_type;location;lat;lon;timestamp;pressure;altitude;pressure_sealevel;temperature;humidity
47082;BME280;33066;49.296;14.470;2022-10-15T00:01:23;96633.29;;;17.39;41.34
47082;BME280;33066;49.296;14.470;2022-10-15T00:03:48;96631.71;;;17.43;41.36
47082;BME280;33066;49.296;14.470;2022-10-15T00:06:16;96628.80;;;17.71;41.31
47082;BME280;33066;49.296;14.470;2022-10-15T00:08:39;96623.85;;;17.49;41.23
47082;BME280;33066;49.296;14.470;2022-10-15T00:11:07;96615.87;;;17.77;41.23
47082;BME280;33066;49.296;14.470;2022-10-15T00:13:32;96613.88;;;17.54;41.21
47082;BME280;33066;49.296;14.470;2022-10-15T00:15:55;96608.86;;;17.49;41.26
47082;BME280;33066;49.296;14.470;2022-10-15T00:18:20;96607.39;;;17.46;41.31
47082;BME280;33066;49.296;14.470;2022-10-15T00:20:46;96607.25;;;17.21;41.39
47082;BME280;33066;49.296;14.470;2022-10-15T00:23:12;96604.73;;;17.44;41.43
47082;BME280;33066;49.296;14.470;2022-10-15T00:25:37;96602.76;;;17.60;41.55
47082;BME280;33066;49.296;14.470;2022-10-15T00:28:03;96601.05;;;17.62;41.51
47082;BME280;33066;49.296;14.470;2022-10-15T00:30:29;96599.39;;;17.60;41.55
47082;BME280;33066;49.296;14.470;2022-10-15T00:32:55;96603.33;;;17.54;41.63
47082;BME280;33066;49.296;14.470;2022-10-15T00:35:20;96597.02;;;17.55;41.63
47082;BME280;33066;49.296;14.470;2022-10-15T00:37:44;96592.81;;;17.56;41.58
47082;BME280;33066;49.296;14.470;2022-10-15T00:40:11;96592.21;;;17.59;41.59
47082;BME280;33066;49.296;14.470;2022-10-15T00:42:36;96587.84;;;17.55;41.70
47082;BME280;33066;49.296;14.470;2022-10-15T00:45:01;96591.44;;;17.08;41.71
47082;BME280;33066;49.296;14.470;2022-10-15T00:47:31;96590.54;;;17.55;41.71
47082;BME280;33066;49.296;14.470;2022-10-15T00:49:58;96588.76;;;17.57;41.68
47082;BME280;33066;49.296;14.470;2022-10-15T00:52:22;96582.59;;;17.31;41.76
47082;BME280;33066;49.296;14.470;2022-10-15T00:54:48;96582.47;;;17.56;41.76
47082;BME280;33066;49.296;14.470;2022-10-15T00:57:11;96578.02;;;17.32;41.80
47082;BME280;33066;49.296;14.470;2022-10-15T00:59:38;96577.56;;;17.61;41.75
47082;BME280;33066;49.296;14.470;2022-10-15T01:02:01;96574.79;;;17.11;41.75
47082;BME280;33066;49.296;14.470;2022-10-15T01:04:25;96572.49;;;17.62;41.73
47082;BME280;33066;49.296;14.470;2022-10-15T01:06:51;96569.66;;;17.61;41.79
47082;BME280;33066;49.296;14.470;2022-10-15T01:09:17;96567.11;;;17.17;41.80
47082;BME280;33066;49.296;14.470;2022-10-15T01:11:45;96565.38;;;17.43;41.77
47082;BME280;33066;49.296;14.470;2022-10-15T01:14:24;96566.79;;;17.68;41.79
47082;BME280;33066;49.296;14.470;2022-10-15T01:16:42;96566.24;;;17.66;41.79
47082;BME280;33066;49.296;14.470;2022-10-15T01:19:05;96559.79;;;17.43;41.75
47082;BME280;33066;49.296;14.470;2022-10-15T01:21:27;96556.64;;;17.39;41.80
47082;BME280;33066;49.296;14.470;2022-10-15T01:26:28;96558.74;;;17.59;41.85
47082;BME280;33066;49.296;14.470;2022-10-15T01:28:47;96551.09;;;17.58;41.87
47082;BME280;33066;49.296;14.470;2022-10-15T01:31:14;96548.34;;;17.30;41.92
47082;BME280;33066;49.296;14.470;2022-10-15T01:33:39;96546.11;;;17.56;41.96
47082;BME280;33066;49.296;14.470;2022-10-15T01:36:06;96545.84;;;17.47;42.10
47082;BME280;33066;49.296;14.470;2022-10-15T01:38:34;96541.62;;;17.48;42.13
47082;BME280;33066;49.296;14.470;2022-10-15T01:40:51;96539.51;;;17.24;42.18
47082;BME280;33066;49.296;14.470;2022-10-15T01:43:19;96541.66;;;17.22;42.26
47082;BME280;33066;49.296;14.470;2022-10-15T01:45:42;96544.12;;;17.41;42.28
47082;BME280;33066;49.296;14.470;2022-10-15T01:48:07;96544.38;;;17.36;42.43
47082;BME280;33066;49.296;14.470;2022-10-15T01:50:32;96540.15;;;17.38;42.47
47082;BME280;33066;49.296;14.470;2022-10-15T01:52:59;96537.44;;;17.16;42.47
47082;BME280;33066;49.296;14.470;2022-10-15T01:55:23;96531.21;;;17.33;42.61
47082;BME280;33066;49.296;14.470;2022-10-15T01:57:47;96532.14;;;17.30;42.69
47082;BME280;33066;49.296;14.470;2022-10-15T02:00:13;96529.32;;;17.28;42.73
47082;BME280;33066;49.296;14.470;2022-10-15T02:02:38;96525.09;;;16.98;42.90
47082;BME280;33066;49.296;14.470;2022-10-15T02:05:05;96520.65;;;17.22;42.94
47082;BME280;33066;49.296;14.470;2022-10-15T02:07:37;96517.17;;;16.92;43.06
47082;BME280;33066;49.296;14.470;2022-10-15T02:09:59;96511.77;;;17.12;43.22
47082;BME280;33066;49.296;14.470;2022-10-15T02:12:30;96509.99;;;17.17;43.17
47082;BME280;33066;49.296;14.470;2022-10-15T02:14:52;96508.34;;;17.14;43.32
47082;BME280;33066;49.296;14.470;2022-10-15T02:17:10;96510.12;;;17.10;43.40
47082;BME280;33066;49.296;14.470;2022-10-15T02:19:42;96511.20;;;16.95;43.42
47082;BME280;33066;49.296;14.470;2022-10-15T02:22:07;96508.58;;;17.23;43.41
47082;BME280;33066;49.296;14.470;2022-10-15T02:24:31;96503.43;;;17.22;43.38
47082;BME280;33066;49.296;14.470;2022-10-15T02:26:53;96498.38;;;17.21;43.44
47082;BME280;33066;49.296;14.470;2022-10-15T02:29:22;96497.45;;;17.19;43.48
47082;BME280;33066;49.296;14.470;2022-10-15T02:31:44;96494.10;;;17.17;43.66
47082;BME280;33066;49.296;14.470;2022-10-15T02:34:13;96490.97;;;17.15;43.69
47082;BME280;33066;49.296;14.470;2022-10-15T02:36:34;96487.36;;;16.95;43.72
47082;BME280;33066;49.296;14.470;2022-10-15T02:39:00;96484.53;;;17.48;43.71
47082;BME280;33066;49.296;14.470;2022-10-15T02:41:26;96486.10;;;17.31;43.82
47082;BME280;33066;49.296;14.470;2022-10-15T02:43:50;96482.66;;;17.37;43.72
47082;BME280;33066;49.296;14.470;2022-10-15T02:46:19;96480.65;;;17.67;43.69
47082;BME280;33066;49.296;14.470;2022-10-15T02:48:42;96480.01;;;17.46;43.76
47082;BME280;33066;49.296;14.470;2022-10-15T02:51:07;96477.17;;;17.24;43.83
47082;BME280;33066;49.296;14.470;2022-10-15T02:53:33;96474.15;;;17.24;43.82
47082;BME280;33066;49.296;14.470;2022-10-15T02:55:58;96473.19;;;17.28;43.86
47082;BME280;33066;49.296;14.470;2022-10-15T02:58:23;96467.94;;;17.28;43.82
47082;BME280;33066;49.296;14.470;2022-10-15T03:00:48;96464.03;;;17.51;43.83
47082;BME280;33066;49.296;14.470;2022-10-15T03:03:14;96459.64;;;17.49;43.88
47082;BME280;33066;49.296;14.470;2022-10-15T03:05:41;96455.66;;;17.46;43.95
47082;BME280;33066;49.296;14.470;2022-10-15T03:08:05;96456.51;;;17.31;44.54
47082;BME280;33066;49.296;14.470;2022-10-15T03:13:02;96460.13;;;17.51;43.69
47082;BME280;33066;49.296;14.470;2022-10-15T03:15:26;96462.35;;;17.46;44.04
47082;BME280;33066;49.296;14.470;2022-10-15T03:17:51;96462.80;;;17.85;43.85
47082;BME280;33066;49.296;14.470;2022-10-15T03:20:17;96464.20;;;17.79;43.75
47082;BME280;33066;49.296;14.470;2022-10-15T03:22:42;96467.38;;;17.52;43.78
47082;BME280;33066;49.296;14.470;2022-10-15T03:25:08;96464.25;;;17.59;44.05
47082;BME280;33066;49.296;14.470;2022-10-15T03:27:34;96462.56;;;17.17;44.16
47082;BME280;33066;49.296;14.470;2022-10-15T03:30:00;96462.92;;;17.30;44.39
47082;BME280;33066;49.296;14.470;2022-10-15T03:32:25;96460.95;;;17.18;44.44
47082;BME280;33066;49.296;14.470;2022-10-15T03:34:51;96463.03;;;17.03;44.57
47082;BME280;33066;49.296;14.470;2022-10-15T03:37:15;96463.49;;;17.06;44.85
47082;BME280;33066;49.296;14.470;2022-10-15T03:39:45;96461.08;;;17.04;44.58
47082;BME280;33066;49.296;14.470;2022-10-15T03:42:06;96461.98;;;16.95;44.92
47082;BME280;33066;49.296;14.470;2022-10-15T03:44:32;96459.46;;;17.01;44.89
47082;BME280;33066;49.296;14.470;2022-10-15T03:46:59;96457.29;;;17.02;44.80
47082;BME280;33066;49.296;14.470;2022-10-15T03:49:23;96456.64;;;16.99;44.89
47082;BME280;33066;49.296;14.470;2022-10-15T03:51:47;96454.50;;;17.02;45.08
47082;BME280;33066;49.296;14.470;2022-10-15T03:54:13;96454.33;;;16.99;44.90
47082;BME280;33066;49.296;14.470;2022-10-15T03:56:39;96454.55;;;16.94;45.05
47082;BME280;33066;49.296;14.470;2022-10-15T03:59:06;96452.22;;;16.90;45.18
47082;BME280;33066;49.296;14.470;2022-10-15T04:01:32;96447.92;;;16.83;45.40
47082;BME280;33066;49.296;14.470;2022-10-15T04:03:55;96445.10;;;17.13;45.27
47082;BME280;33066;49.296;14.470;2022-10-15T04:06:21;96441.51;;;16.96;45.27
47082;BME280;33066;49.296;14.470;2022-10-15T04:08:46;96437.35;;;16.97;45.16
47082;BME280;33066;49.296;14.470;2022-10-15T04:11:12;96437.22;;;17.04;45.26
47082;BME280;33066;49.296;14.470;2022-10-15T04:13:37;96435.29;;;17.06;45.16
47082;BME280;33066;49.296;14.470;2022-10-15T04:16:03;96431.81;;;17.10;45.14
47082;BME280;33066;49.296;14.470;2022-10-15T04:18:28;96431.46;;;17.38;45.18
47082;BME280;33066;49.296;14.470;2022-10-15T04:20:59;96431.10;;;16.98;45.04
47082;BME280;33066;49.296;14.470;2022-10-15T04:23:18;96428.10;;;17.17;45.06
47082;BME280;33066;49.296;14.470;2022-10-15T04:25:46;96431.38;;;17.14;45.14
47082;BME280;33066;49.296;14.470;2022-10-15T04:28:10;96428.36;;;17.14;45.15
47082;BME280;33066;49.296;14.470;2022-10-15T04:30:35;96430.53;;;17.14;45.17
47082;BME280;33066;49.296;14.470;2022-10-15T04:33:01;96432.07;;;17.07;45.30
47082;BME280;33066;49.296;14.470;2022-10-15T04:35:27;96431.18;;;16.80;45.33
47082;BME280;33066;49.296;14.470;2022-10-15T04:37:52;96429.22;;;17.08;45.27
47082;BME280;33066;49.296;14.470;2022-10-15T04:40:18;96425.41;;;17.31;45.35
47082;BME280;33066;49.296;14.470;2022-10-15T04:42:43;96425.36;;;17.08;45.35
47082;BME280;33066;49.296;14.470;2022-10-15T04:45:08;96430.38;;;17.02;45.45
47082;BME280;33066;49.296;14.470;2022-10-15T04:47:34;96432.27;;;17.05;45.42
47082;BME280;33066;49.296;14.470;2022-10-15T04:49:59;96438.51;;;17.07;45.44
47082;BME280;33066;49.296;14.470;2022-10-15T04:52:24;96438.72;;;17.01;45.56
47082;BME280;33066;49.296;14.470;2022-10-15T04:54:49;96440.83;;;17.12;45.48
47082;BME280;33066;49.296;14.470;2022-10-15T04:57:15;96440.22;;;17.12;45.38
47082;BME280;33066;49.296;14.470;2022-10-15T04:59:40;96438.54;;;17.18;45.40
47082;BME280;33066;49.296;14.470;2022-10-15T05:02:06;96435.88;;;17.22;45.36
47082;BME280;33066;49.296;14.470;2022-10-15T05:04:31;96437.68;;;17.01;45.37
47082;BME280;33066;49.296;14.470;2022-10-15T05:06:56;96435.20;;;17.27;45.46
47082;BME280;33066;49.296;14.470;2022-10-15T05:09:22;96432.27;;;17.04;45.68
47082;BME280;33066;49.296;14.470;2022-10-15T05:11:48;96425.27;;;17.21;45.79
47082;BME280;33066;49.296;14.470;2022-10-15T05:14:13;96420.32;;;17.26;46.05
47082;BME280;33066;49.296;14.470;2022-10-15T05:16:40;96421.94;;;17.35;45.87
47082;BME280;33066;49.296;14.470;2022-10-15T05:19:06;96423.88;;;17.41;45.94
47082;BME280;33066;49.296;14.470;2022-10-15T05:21:30;96423.59;;;17.48;45.82
47082;BME280;33066;49.296;14.470;2022-10-15T05:23:57;96422.33;;;17.54;45.50
47082;BME280;33066;49.296;14.470;2022-10-15T05:26:22;96423.38;;;17.16;45.38
47082;BME280;33066;49.296;14.470;2022-10-15T05:28:46;96421.51;;;17.70;45.44
47082;BME280;33066;49.296;14.470;2022-10-15T05:31:13;96418.65;;;17.76;45.27
47082;BME280;33066;49.296;14.470;2022-10-15T05:33:37;96417.01;;;17.48;45.08
47082;BME280;33066;49.296;14.470;2022-10-15T05:36:12;96417.24;;;17.46;45.02
47082;BME280;33066;49.296;14.470;2022-10-15T05:38:27;96416.44;;;17.47;44.97
47082;BME280;33066;49.296;14.470;2022-10-15T05:40:52;96414.11;;;17.56;45.00
47082;BME280;33066;49.296;14.470;2022-10-15T05:43:17;96415.47;;;17.29;44.89
47082;BME280;33066;49.296;14.470;2022-10-15T05:45:43;96418.78;;;17.80;44.45
47082;BME280;33066;49.296;14.470;2022-10-15T05:48:09;96422.39;;;17.12;44.90
47082;BME280;33066;49.296;14.470;2022-10-15T05:50:35;96429.36;;;17.57;44.90
47082;BME280;33066;49.296;14.470;2022-10-15T05:53:01;96435.80;;;17.31;44.95
47082;BME280;33066;49.296;14.470;2022-10-15T05:55:26;96429.31;;;17.10;45.07
47082;BME280;33066;49.296;14.470;2022-10-15T05:57:51;96422.68;;;17.31;44.84
47082;BME280;33066;49.296;14.470;2022-10-15T06:00:16;96423.58;;;17.55;44.98
47082;BME280;33066;49.296;14.470;2022-10-15T06:02:42;96425.24;;;17.55;44.95
47082;BME280;33066;49.296;14.470;2022-10-15T06:05:09;96430.45;;;17.34;45.02
47082;BME280;33066;49.296;14.470;2022-10-15T06:07:33;96437.59;;;17.42;44.81
47082;BME280;33066;49.296;14.470;2022-10-15T06:09:58;96433.30;;;17.42;44.75
47082;BME280;33066;49.296;14.470;2022-10-15T06:12:23;96436.44;;;17.71;44.75
47082;BME280;33066;49.296;14.470;2022-10-15T06:14:49;96435.71;;;17.45;44.70
47082;BME280;33066;49.296;14.470;2022-10-15T06:17:14;96434.24;;;17.62;44.73
47082;BME280;33066;49.296;14.470;2022-10-15T06:19:42;96432.72;;;17.61;44.79
47082;BME280;33066;49.296;14.470;2022-10-15T06:22:08;96441.11;;;17.49;44.92
47082;BME280;33066;49.296;14.470;2022-10-15T06:24:31;96442.24;;;17.18;45.12
47082;BME280;33066;49.296;14.470;2022-10-15T06:26:59;96441.56;;;17.68;45.12
47082;BME280;33066;49.296;14.470;2022-10-15T06:29:26;96437.33;;;17.50;45.07
47082;BME280;33066;49.296;14.470;2022-10-15T06:31:47;96441.15;;;17.34;45.02
47082;BME280;33066;49.296;14.470;2022-10-15T06:34:13;96450.63;;;17.33;45.08
47082;BME280;33066;49.296;14.470;2022-10-15T06:36:38;96458.02;;;17.66;44.94
47082;BME280;33066;49.296;14.470;2022-10-15T06:39:09;96462.09;;;17.46;44.89
47082;BME280;33066;49.296;14.470;2022-10-15T06:41:30;96460.27;;;17.78;44.77
47082;BME280;33066;49.296;14.470;2022-10-15T06:43:57;96461.02;;;17.55;44.83
47082;BME280;33066;49.296;14.470;2022-10-15T06:46:21;96463.61;;;17.55;44.83
47082;BME280;33066;49.296;14.470;2022-10-15T06:48:46;96463.24;;;17.81;44.87
47082;BME280;33066;49.296;14.470;2022-10-15T06:51:13;96464.98;;;17.58;44.86
47082;BME280;33066;49.296;14.470;2022-10-15T06:53:37;96465.15;;;17.64;44.84
47082;BME280;33066;49.296;14.470;2022-10-15T06:56:04;96466.50;;;17.66;44.85
47082;BME280;33066;49.296;14.470;2022-10-15T06:58:29;96469.77;;;17.72;44.87
47082;BME280;33066;49.296;14.470;2022-10-15T07:00:59;96470.24;;;17.43;44.84
47082;BME280;33066;49.296;14.470;2022-10-15T07:03:21;96468.77;;;17.72;44.90
47082;BME280;33066;49.296;14.470;2022-10-15T07:05:44;96465.69;;;17.58;44.83
47082;BME280;33066;49.296;14.470;2022-10-15T07:08:10;96464.62;;;17.79;44.89
47082;BME280;33066;49.296;14.470;2022-10-15T07:10:37;96464.65;;;17.51;45.01
47082;BME280;33066;49.296;14.470;2022-10-15T07:13:02;96466.54;;;17.98;45.05
47082;BME280;33066;49.296;14.470;2022-10-15T07:15:27;96468.66;;;17.52;45.12
47082;BME280;33066;49.296;14.470;2022-10-15T07:17:53;96470.60;;;17.45;45.29
47082;BME280;33066;49.296;14.470;2022-10-15T07:20:18;96471.31;;;17.73;45.22
47082;BME280;33066;49.296;14.470;2022-10-15T07:22:43;96474.14;;;17.46;45.33
47082;BME280;33066;49.296;14.470;2022-10-15T07:25:08;96474.66;;;17.99;45.38
47082;BME280;33066;49.296;14.470;2022-10-15T07:27:34;96479.94;;;17.45;45.39
47082;BME280;33066;49.296;14.470;2022-10-15T07:29:59;96480.57;;;17.46;45.38
47082;BME280;33066;49.296;14.470;2022-10-15T07:32:25;96478.90;;;18.00;45.45
47082;BME280;33066;49.296;14.470;2022-10-15T07:34:51;96479.24;;;18.07;45.50
47082;BME280;33066;49.296;14.470;2022-10-15T07:37:15;96476.03;;;17.71;45.41
47082;BME280;33066;49.296;14.470;2022-10-15T07:39:41;96480.31;;;17.72;45.43
47082;BME280;33066;49.296;14.470;2022-10-15T07:42:05;96480.83;;;18.26;45.47
47082;BME280;33066;49.296;14.470;2022-10-15T07:44:32;96484.09;;;17.85;45.44
47082;BME280;33066;49.296;14.470;2022-10-15T07:46:58;96482.53;;;17.98;45.36
47082;BME280;33066;49.296;14.470;2022-10-15T07:49:23;96482.16;;;18.05;45.29
47082;BME280;33066;49.296;14.470;2022-10-15T07:51:48;96481.76;;;18.04;45.29
47082;BME280;33066;49.296;14.470;2022-10-15T07:54:13;96480.43;;;18.08;45.27
47082;BME280;33066;49.296;14.470;2022-10-15T07:56:39;96476.71;;;18.12;45.27
47082;BME280;33066;49.296;14.470;2022-10-15T07:59:04;96474.66;;;18.12;45.41
47082;BME280;33066;49.296;14.470;2022-10-15T08:01:29;96478.23;;;18.14;45.45
47082;BME280;33066;49.296;14.470;2022-10-15T08:03:54;96480.05;;;18.15;45.46
47082;BME280;33066;49.296;14.470;2022-10-15T08:06:21;96477.43;;;17.89;45.42
47082;BME280;33066;49.296;14.470;2022-10-15T08:08:46;96479.07;;;18.33;45.47
47082;BME280;33066;49.296;14.470;2022-10-15T08:11:12;96478.23;;;18.14;45.49
47082;BME280;33066;49.296;14.470;2022-10-15T08:13:38;96476.34;;;18.23;45.44
47082;BME280;33066;49.296;14.470;2022-10-15T08:16:02;96477.12;;;18.28;45.38
47082;BME280;33066;49.296;14.470;2022-10-15T08:18:27;96476.71;;;18.12;45.50
47082;BME280;33066;49.296;14.470;2022-10-15T08:20:52;96474.26;;;18.38;45.60
47082;BME280;33066;49.296;14.470;2022-10-15T08:23:17;96469.94;;;18.36;45.64
47082;BME280;33066;49.296;14.470;2022-10-15T08:25:43;96470.44;;;18.38;45.67
47082;BME280;33066;49.296;14.470;2022-10-15T08:28:10;96473.98;;;18.32;45.75
47082;BME280;33066;49.296;14.470;2022-10-15T08:30:34;96477.02;;;18.33;45.72
47082;BME280;33066;49.296;14.470;2022-10-15T08:32:59;96481.69;;;18.11;45.73
47082;BME280;33066;49.296;14.470;2022-10-15T08:35:24;96484.95;;;18.39;45.79
47082;BME280;33066;49.296;14.470;2022-10-15T08:37:54;96487.95;;;18.37;45.63
47082;BME280;33066;49.296;14.470;2022-10-15T08:40:17;96491.88;;;18.54;45.68
47082;BME280;33066;49.296;14.470;2022-10-15T08:42:44;96490.57;;;18.28;45.77
47082;BME280;33066;49.296;14.470;2022-10-15T08:45:13;96497.22;;;18.38;45.74
47082;BME280;33066;49.296;14.470;2022-10-15T08:47:37;96501.31;;;18.48;45.59
47082;BME280;33066;49.296;14.470;2022-10-15T08:49:59;96504.91;;;18.46;45.59
47082;BME280;33066;49.296;14.470;2022-10-15T08:52:25;96506.33;;;18.46;45.72
47082;BME280;33066;49.296;14.470;2022-10-15T08:54:49;96504.12;;;18.51;45.81
47082;BME280;33066;49.296;14.470;2022-10-15T08:57:28;96504.53;;;18.50;45.84
47082;BME280;33066;49.296;14.470;2022-10-15T08:59:46;96506.71;;;18.58;45.78
47082;BME280;33066;49.296;14.470;2022-10-15T09:02:13;96505.85;;;18.36;45.87
47082;BME280;33066;49.296;14.470;2022-10-15T09:04:37;96505.58;;;18.64;45.88
47082;BME280;33066;49.296;14.470;2022-10-15T09:07:01;96509.79;;;18.64;45.99
47082;BME280;33066;49.296;14.470;2022-10-15T09:09:27;96510.49;;;18.64;46.07
47082;BME280;33066;49.296;14.470;2022-10-15T09:11:55;96508.37;;;18.75;46.03
47082;BME280;33066;49.296;14.470;2022-10-15T09:14:15;96508.38;;;18.86;46.01
47082;BME280;33066;49.296;14.470;2022-10-15T09:16:39;96505.75;;;18.74;46.02
47082;BME280;33066;49.296;14.470;2022-10-15T09:19:09;96508.56;;;18.49;45.99
47082;BME280;33066;49.296;14.470;2022-10-15T09:21:29;96511.27;;;18.87;45.92
47082;BME280;33066;49.296;14.470;2022-10-15T09:23:55;96518.82;;;18.74;46.06
47082;BME280;33066;49.296;14.470;2022-10-15T09:26:24;96522.32;;;18.87;46.00
47082;BME280;33066;49.296;14.470;2022-10-15T09:28:50;96526.50;;;19.01;45.97
47082;BME280;33066;49.296;14.470;2022-10-15T09:31:13;96528.86;;;19.63;45.77
47082;BME280;33066;49.296;14.470;2022-10-15T09:33:38;96530.29;;;19.48;45.75
47082;BME280;33066;49.296;14.470;2022-10-15T09:36:26;96533.04;;;19.37;45.66
47082;BME280;33066;49.296;14.470;2022-10-15T09:38:34;96537.44;;;19.51;45.66
47082;BME280;33066;49.296;14.470;2022-10-15T09:41:01;96537.97;;;19.37;45.71
47082;BME280;33066;49.296;14.470;2022-10-15T09:43:23;96539.67;;;19.74;45.53
47082;BME280;33066;49.296;14.470;2022-10-15T09:45:43;96543.89;;;19.57;45.70
47082;BME280;33066;49.296;14.470;2022-10-15T09:48:14;96544.15;;;19.62;45.81
47082;BME280;33066;49.296;14.470;2022-10-15T09:50:40;96541.47;;;19.69;45.65
47082;BME280;33066;49.296;14.470;2022-10-15T09:53:06;96541.61;;;19.99;45.78
47082;BME280;33066;49.296;14.470;2022-10-15T09:55:35;96543.26;;;20.00;45.91
47082;BME280;33066;49.296;14.470;2022-10-15T09:57:55;96546.55;;;19.89;46.00
47082;BME280;33066;49.296;14.470;2022-10-15T10:00:15;96547.85;;;19.57;45.89
47082;BME280;33066;49.296;14.470;2022-10-15T10:02:41;96550.68;;;19.79;45.94
47082;BME280;33066;49.296;14.470;2022-10-15T10:05:19;96553.94;;;19.80;46.04
47082;BME280;33066;49.296;14.470;2022-10-15T10:07:35;96554.22;;;19.62;45.91
47082;BME280;33066;49.296;14.470;2022-10-15T10:10:02;96555.28;;;19.55;45.74
47082;BME280;33066;49.296;14.470;2022-10-15T10:12:31;96556.13;;;19.66;45.78
47082;BME280;33066;49.296;14.470;2022-10-15T10:14:54;96554.49;;;19.76;45.94
47082;BME280;33066;49.296;14.470;2022-10-15T10:17:18;96556.31;;;19.82;45.86
47082;BME280;33066;49.296;14.470;2022-10-15T10:19:40;96558.63;;;19.36;45.95
47082;BME280;33066;49.296;14.470;2022-10-15T10:22:13;96560.15;;;19.40;46.00
47082;BME280;33066;49.296;14.470;2022-10-15T10:24:30;96556.10;;;18.56;45.99
47082;BME280;33066;49.296;14.470;2022-10-15T10:26:56;96556.94;;;20.19;45.02
47082;BME280;33066;49.296;14.470;2022-10-15T10:29:23;96558.69;;;20.29;45.13
47082;BME280;33066;49.296;14.470;2022-10-15T10:31:48;96563.86;;;20.03;45.34
47082;BME280;33066;49.296;14.470;2022-10-15T10:34:20;96559.84;;;20.13;45.58
47082;BME280;33066;49.296;14.470;2022-10-15T10:36:37;96554.44;;;20.23;45.68
47082;BME280;33066;49.296;14.470;2022-10-15T10:39:11;96561.89;;;19.86;45.72
47082;BME280;33066;49.296;14.470;2022-10-15T10:43:54;96565.54;;;20.18;45.35
47082;BME280;33066;49.296;14.470;2022-10-15T10:46:21;96569.34;;;20.07;45.40
47082;BME280;33066;49.296;14.470;2022-10-15T10:48:45;96572.80;;;20.31;45.55
47082;BME280;33066;49.296;14.470;2022-10-15T10:51:12;96570.86;;;20.16;45.51
47082;BME280;33066;49.296;14.470;2022-10-15T10:53:45;96573.95;;;20.43;45.48
47082;BME280;33066;49.296;14.470;2022-10-15T10:56:01;96575.14;;;20.46;45.61
47082;BME280;33066;49.296;14.470;2022-10-15T10:58:28;96574.00;;;20.08;45.66
47082;BME280;33066;49.296;14.470;2022-10-15T11:00:51;96568.29;;;20.42;45.72
47082;BME280;33066;49.296;14.470;2022-10-15T11:03:27;96569.34;;;20.60;45.93
47082;BME280;33066;49.296;14.470;2022-10-15T11:05:43;96572.15;;;20.70;46.00
47082;BME280;33066;49.296;14.470;2022-10-15T11:08:15;96573.46;;;20.60;45.46
47082;BME280;33066;49.296;14.470;2022-10-15T11:10:38;96575.27;;;20.52;45.53
47082;BME280;33066;49.296;14.470;2022-10-15T11:13:08;96575.60;;;20.42;45.17
47082;BME280;33066;49.296;14.470;2022-10-15T11:15:32;96577.70;;;20.47;45.40
47082;BME280;33066;49.296;14.470;2022-10-15T11:17:56;96581.59;;;20.43;45.52
47082;BME280;33066;49.296;14.470;2022-10-15T11:20:18;96582.90;;;20.28;45.31
47082;BME280;33066;49.296;14.470;2022-10-15T11:22:52;96587.56;;;20.18;45.21
47082;BME280;33066;49.296;14.470;2022-10-15T11:25:13;96587.15;;;20.36;45.48
47082;BME280;33066;49.296;14.470;2022-10-15T11:27:41;96583.37;;;20.34;45.47
47082;BME280;33066;49.296;14.470;2022-10-15T11:29:57;96586.80;;;20.10;45.53
47082;BME280;33066;49.296;14.470;2022-10-15T11:32:32;96581.53;;;20.27;45.53
47082;BME280;33066;49.296;14.470;2022-10-15T11:37:24;96579.28;;;20.21;45.75
47082;BME280;33066;49.296;14.470;2022-10-15T11:39:48;96577.74;;;20.32;45.67
47082;BME280;33066;49.296;14.470;2022-10-15T11:42:07;96573.53;;;20.42;45.57
47082;BME280;33066;49.296;14.470;2022-10-15T11:44:50;96568.07;;;20.56;45.77
47082;BME280;33066;49.296;14.470;2022-10-15T11:47:03;96567.39;;;20.56;45.51
47082;BME280;33066;49.296;14.470;2022-10-15T11:49:27;96571.63;;;20.53;45.61
47082;BME280;33066;49.296;14.470;2022-10-15T11:51:55;96571.64;;;20.49;45.51
47082;BME280;33066;49.296;14.470;2022-10-15T11:54:17;96566.71;;;20.58;45.07
47082;BME280;33066;49.296;14.470;2022-10-15T11:56:38;96559.77;;;20.76;45.05
47082;BME280;33066;49.296;14.470;2022-10-15T11:59:02;96558.10;;;20.75;44.94
47082;BME280;33066;49.296;14.470;2022-10-15T12:01:31;96551.05;;;21.35;44.59
47082;BME280;33066;49.296;14.470;2022-10-15T12:03:52;96556.78;;;21.14;44.21
47082;BME280;33066;49.296;14.470;2022-10-15T12:06:18;96560.25;;;21.38;44.07
47082;BME280;33066;49.296;14.470;2022-10-15T12:08:39;96559.98;;;21.32;44.21
47082;BME280;33066;49.296;14.470;2022-10-15T12:11:13;96557.69;;;21.09;44.75
47082;BME280;33066;49.296;14.470;2022-10-15T12:13:35;96558.00;;;21.63;44.75
47082;BME280;33066;49.296;14.470;2022-10-15T12:16:05;96559.24;;;20.97;44.86
47082;BME280;33066;49.296;14.470;2022-10-15T12:18:27;96556.53;;;20.92;45.05
47082;BME280;33066;49.296;14.470;2022-10-15T12:20:46;96555.21;;;21.10;45.17
47082;BME280;33066;49.296;14.470;2022-10-15T12:23:21;96555.06;;;21.27;45.19
47082;BME280;33066;49.296;14.470;2022-10-15T12:25:42;96553.35;;;21.10;45.41
47082;BME280;33066;49.296;14.470;2022-10-15T12:28:04;96556.78;;;21.35;45.34
47082;BME280;33066;49.296;14.470;2022-10-15T12:30:29;96556.83;;;21.45;44.95
47082;BME280;33066;49.296;14.470;2022-10-15T12:32:52;96561.25;;;21.43;44.94
47082;BME280;33066;49.296;14.470;2022-10-15T12:35:20;96564.35;;;21.32;45.04
47082;BME280;33066;49.296;14.470;2022-10-15T12:37:44;96566.80;;;21.08;45.07
47082;BME280;33066;49.296;14.470;2022-10-15T12:42:35;96564.70;;;20.69;45.56
47082;BME280;33066;49.296;14.470;2022-10-15T12:45:02;96567.87;;;20.79;45.69
47082;BME280;33066;49.296;14.470;2022-10-15T12:49:58;96571.43;;;20.71;46.03
47082;BME280;33066;49.296;14.470;2022-10-15T12:54:41;96576.07;;;20.66;46.27
47082;BME280;33066;49.296;14.470;2022-10-15T13:01:56;96577.91;;;20.62;46.45